sensor_id;sensor_type;location;lat;lon;timestamp;temperature;humidity
22771;DHT22;11552;50.786;4.332;2022-08-18T00:00:51;19.70;99.90
22771;DHT22;11552;50.786;4.332;2022-08-18T00:03:16;20.10;99.90
22771;DHT22;11552;50.786;4.332;2022-08-18T00:05:44;20.30;99.90
22771;DHT22;11552;50.786;4.332;2022-08-18T00:08:10;20.30;99.90
22771;DHT22;11552;50.786;4.332;2022-08-18T00:10:35;20.30;99.90
22771;DHT22;11552;50.786;4.332;2022-08-18T00:13:01;20.20;99.90
22771;DHT22;11552;50.786;4.332;2022-08-18T00:15:26;20.00;99.90
22771;DHT22;11552;50.786;4.332;2022-08-18T00:17:52;19.80;99.90
22771;DHT22;11552;50.786;4.332;2022-08-18T00:20:19;19.70;99.90
22771;DHT22;11552;50.786;4.332;2022-08-18T00:22:45;19.70;99.90
22771;DHT22;11552;50.786;4.332;2022-08-18T00:25:11;19.70;99.90
22771;DHT22;11552;50.786;4.332;2022-08-18T00:27:37;19.70;99.90
22771;DHT22;11552;50.786;4.332;2022-08-18T00:30:05;19.70;99.90
22771;DHT22;11552;50.786;4.332;2022-08-18T00:32:34;19.80;99.90
22771;DHT22;11552;50.786;4.332;2022-08-18T00:35:45;19.80;99.90
22771;DHT22;11552;50.786;4.332;2022-08-18T00:37:46;19.80;99.90
22771;DHT22;11552;50.786;4.332;2022-08-18T00:40:14;19.90;99.90
22771;DHT22;11552;50.786;4.332;2022-08-18T00:42:44;19.90;99.90
22771;DHT22;11552;50.786;4.332;2022-08-18T00:45:11;19.90;99.90
22771;DHT22;11552;50.786;4.332;2022-08-18T00:47:37;19.90;99.90
22771;DHT22;11552;50.786;4.332;2022-08-18T00:50:03;19.90;99.90
22771;DHT22;11552;50.786;4.332;2022-08-18T00:52:28;19.90;99.90
22771;DHT22;11552;50.786;4.332;2022-08-18T00:54:54;19.90;99.90
22771;DHT22;11552;50.786;4.332;2022-08-18T00:57:21;20.00;99.90
22771;DHT22;11552;50.786;4.332;2022-08-18T00:59:51;20.00;99.90
22771;DHT22;11552;50.786;4.332;2022-08-18T01:02:25;20.00;99.90
22771;DHT22;11552;50.786;4.332;2022-08-18T01:04:54;19.70;99.90
22771;DHT22;11552;50.786;4.332;2022-08-18T01:07:32;19.70;99.90
22771;DHT22;11552;50.786;4.332;2022-08-18T01:09:58;19.60;99.90
22771;DHT22;11552;50.786;4.332;2022-08-18T01:12:24;19.50;99.90
22771;DHT22;11552;50.786;4.332;2022-08-18T01:14:50;19.40;99.90
22771;DHT22;11552;50.786;4.332;2022-08-18T01:17:16;19.30;99.90
22771;DHT22;11552;50.786;4.332;2022-08-18T01:20:00;19.20;99.90
22771;DHT22;11552;50.786;4.332;2022-08-18T01:25:16;19.30;99.90
22771;DHT22;11552;50.786;4.332;2022-08-18T01:28:03;19.50;99.90
22771;DHT22;11552;50.786;4.332;2022-08-18T01:30:29;19.50;99.90
22771;DHT22;11552;50.786;4.332;2022-08-18T01:32:55;19.30;99.90
22771;DHT22;11552;50.786;4.332;2022-08-18T01:35:22;19.40;99.90
22771;DHT22;11552;50.786;4.332;2022-08-18T01:37:50;19.80;99.90
22771;DHT22;11552;50.786;4.332;2022-08-18T01:40:18;19.80;99.90
22771;DHT22;11552;50.786;4.332;2022-08-18T01:42:43;19.80;99.90
22771;DHT22;11552;50.786;4.332;2022-08-18T01:45:10;19.90;99.90
22771;DHT22;11552;50.786;4.332;2022-08-18T01:47:35;19.80;99.90
22771;DHT22;11552;50.786;4.332;2022-08-18T01:50:02;20.10;99.90
22771;DHT22;11552;50.786;4.332;2022-08-18T01:52:28;20.20;99.90
22771;DHT22;11552;50.786;4.332;2022-08-18T01:54:54;20.10;99.90
22771;DHT22;11552;50.786;4.332;2022-08-18T01:57:22;20.10;99.90
22771;DHT22;11552;50.786;4.332;2022-08-18T01:59:48;20.00;99.90
22771;DHT22;11552;50.786;4.332;2022-08-18T02:02:16;19.90;99.90
22771;DHT22;11552;50.786;4.332;2022-08-18T02:04:42;19.80;99.90
22771;DHT22;11552;50.786;4.332;2022-08-18T02:07:09;19.80;99.90
22771;DHT22;11552;50.786;4.332;2022-08-18T02:09:36;20.00;99.90
22771;DHT22;11552;50.786;4.332;2022-08-18T02:12:02;20.00;99.90
22771;DHT22;11552;50.786;4.332;2022-08-18T02:14:28;20.10;99.90
22771;DHT22;11552;50.786;4.332;2022-08-18T02:16:57;19.90;99.90
22771;DHT22;11552;50.786;4.332;2022-08-18T02:19:22;19.70;99.90
22771;DHT22;11552;50.786;4.332;2022-08-18T02:21:49;19.70;99.90
22771;DHT22;11552;50.786;4.332;2022-08-18T02:24:16;19.70;99.90
22771;DHT22;11552;50.786;4.332;2022-08-18T02:26:42;19.70;99.90
22771;DHT22;11552;50.786;4.332;2022-08-18T02:29:08;20.00;99.90
22771;DHT22;11552;50.786;4.332;2022-08-18T02:31:33;20.10;99.90
22771;DHT22;11552;50.786;4.332;2022-08-18T02:33:59;20.20;99.90
22771;DHT22;11552;50.786;4.332;2022-08-18T02:36:24;20.00;99.90
22771;DHT22;11552;50.786;4.332;2022-08-18T02:38:50;19.90;99.90
22771;DHT22;11552;50.786;4.332;2022-08-18T02:41:15;20.00;99.90
22771;DHT22;11552;50.786;4.332;2022-08-18T02:43:41;20.00;99.90
22771;DHT22;11552;50.786;4.332;2022-08-18T02:46:07;19.80;99.90
22771;DHT22;11552;50.786;4.332;2022-08-18T02:48:33;19.90;99.90
22771;DHT22;11552;50.786;4.332;2022-08-18T02:51:02;20.10;99.90
22771;DHT22;11552;50.786;4.332;2022-08-18T02:53:28;20.30;99.90
22771;DHT22;11552;50.786;4.332;2022-08-18T02:55:54;20.10;99.90
22771;DHT22;11552;50.786;4.332;2022-08-18T02:58:19;20.00;99.90
22771;DHT22;11552;50.786;4.332;2022-08-18T03:00:45;19.80;99.90
22771;DHT22;11552;50.786;4.332;2022-08-18T03:03:10;20.00;99.90
22771;DHT22;11552;50.786;4.332;2022-08-18T03:05:37;20.10;99.90
22771;DHT22;11552;50.786;4.332;2022-08-18T03:08:03;20.30;99.90
22771;DHT22;11552;50.786;4.332;2022-08-18T03:10:28;20.10;99.90
22771;DHT22;11552;50.786;4.332;2022-08-18T03:12:54;20.20;99.90
22771;DHT22;11552;50.786;4.332;2022-08-18T03:15:19;20.20;99.90
22771;DHT22;11552;50.786;4.332;2022-08-18T03:17:45;20.30;99.90
22771;DHT22;11552;50.786;4.332;2022-08-18T03:20:11;20.30;99.90
22771;DHT22;11552;50.786;4.332;2022-08-18T03:22:36;20.40;99.90
22771;DHT22;11552;50.786;4.332;2022-08-18T03:25:02;20.40;99.90
22771;DHT22;11552;50.786;4.332;2022-08-18T03:27:28;20.30;99.90
22771;DHT22;11552;50.786;4.332;2022-08-18T03:29:54;20.40;99.90
22771;DHT22;11552;50.786;4.332;2022-08-18T03:32:19;20.30;99.90
22771;DHT22;11552;50.786;4.332;2022-08-18T03:34:45;20.30;99.90
22771;DHT22;11552;50.786;4.332;2022-08-18T03:37:10;20.20;99.90
22771;DHT22;11552;50.786;4.332;2022-08-18T03:39:36;20.20;99.90
22771;DHT22;11552;50.786;4.332;2022-08-18T03:42:02;20.30;99.90
22771;DHT22;11552;50.786;4.332;2022-08-18T03:44:28;20.40;99.90
22771;DHT22;11552;50.786;4.332;2022-08-18T03:46:54;20.20;99.90
22771;DHT22;11552;50.786;4.332;2022-08-18T03:49:20;20.20;99.90
22771;DHT22;11552;50.786;4.332;2022-08-18T03:51:45;20.10;99.90
22771;DHT22;11552;50.786;4.332;2022-08-18T03:54:11;20.10;99.90
22771;DHT22;11552;50.786;4.332;2022-08-18T03:56:41;20.10;99.90
22771;DHT22;11552;50.786;4.332;2022-08-18T03:59:09;20.20;99.90
22771;DHT22;11552;50.786;4.332;2022-08-18T04:01:36;20.30;99.90
22771;DHT22;11552;50.786;4.332;2022-08-18T04:04:04;20.30;99.90
22771;DHT22;11552;50.786;4.332;2022-08-18T04:06:32;20.10;99.90
22771;DHT22;11552;50.786;4.332;2022-08-18T04:08:59;20.30;99.90
22771;DHT22;11552;50.786;4.332;2022-08-18T04:11:25;20.20;99.90
22771;DHT22;11552;50.786;4.332;2022-08-18T04:13:53;19.90;99.90
22771;DHT22;11552;50.786;4.332;2022-08-18T04:16:19;19.90;99.90
22771;DHT22;11552;50.786;4.332;2022-08-18T04:18:44;19.90;99.90
22771;DHT22;11552;50.786;4.332;2022-08-18T04:21:10;20.00;99.90
22771;DHT22;11552;50.786;4.332;2022-08-18T04:23:38;20.00;99.90
22771;DHT22;11552;50.786;4.332;2022-08-18T04:26:04;19.90;99.90
22771;DHT22;11552;50.786;4.332;2022-08-18T04:28:31;20.00;99.90
22771;DHT22;11552;50.786;4.332;2022-08-18T04:30:58;20.10;99.90
22771;DHT22;11552;50.786;4.332;2022-08-18T04:33:27;20.10;99.90
22771;DHT22;11552;50.786;4.332;2022-08-18T04:35:53;20.10;99.90
22771;DHT22;11552;50.786;4.332;2022-08-18T04:38:19;20.00;99.90
22771;DHT22;11552;50.786;4.332;2022-08-18T04:40:45;19.90;99.90
22771;DHT22;11552;50.786;4.332;2022-08-18T04:43:11;19.90;99.90
22771;DHT22;11552;50.786;4.332;2022-08-18T04:45:45;20.00;99.90
22771;DHT22;11552;50.786;4.332;2022-08-18T04:48:11;20.10;99.90
22771;DHT22;11552;50.786;4.332;2022-08-18T04:50:37;20.20;99.90
22771;DHT22;11552;50.786;4.332;2022-08-18T04:53:03;20.20;99.90
22771;DHT22;11552;50.786;4.332;2022-08-18T04:55:52;20.30;99.90
22771;DHT22;11552;50.786;4.332;2022-08-18T04:58:18;20.30;99.90
22771;DHT22;11552;50.786;4.332;2022-08-18T05:00:44;20.20;99.90
22771;DHT22;11552;50.786;4.332;2022-08-18T05:03:10;20.10;99.90
22771;DHT22;11552;50.786;4.332;2022-08-18T05:05:35;20.10;99.90
22771;DHT22;11552;50.786;4.332;2022-08-18T05:08:01;20.30;99.90
22771;DHT22;11552;50.786;4.332;2022-08-18T05:10:27;20.30;99.90
22771;DHT22;11552;50.786;4.332;2022-08-18T05:12:52;20.20;99.90
22771;DHT22;11552;50.786;4.332;2022-08-18T05:15:18;20.30;99.90
22771;DHT22;11552;50.786;4.332;2022-08-18T05:17:44;20.20;99.90
22771;DHT22;11552;50.786;4.332;2022-08-18T05:20:10;20.20;99.90
22771;DHT22;11552;50.786;4.332;2022-08-18T05:22:36;20.30;99.90
22771;DHT22;11552;50.786;4.332;2022-08-18T05:25:02;20.30;99.90
22771;DHT22;11552;50.786;4.332;2022-08-18T05:27:31;20.30;99.90
22771;DHT22;11552;50.786;4.332;2022-08-18T05:29:57;20.30;99.90
22771;DHT22;11552;50.786;4.332;2022-08-18T05:32:23;20.30;99.90
22771;DHT22;11552;50.786;4.332;2022-08-18T05:34:48;20.30;99.90
22771;DHT22;11552;50.786;4.332;2022-08-18T05:37:26;20.30;99.90
22771;DHT22;11552;50.786;4.332;2022-08-18T05:39:57;20.30;99.90
22771;DHT22;11552;50.786;4.332;2022-08-18T05:42:26;20.30;99.90
22771;DHT22;11552;50.786;4.332;2022-08-18T05:44:53;20.20;99.90
22771;DHT22;11552;50.786;4.332;2022-08-18T05:49:47;20.10;99.90
22771;DHT22;11552;50.786;4.332;2022-08-18T05:52:18;20.30;99.90
22771;DHT22;11552;50.786;4.332;2022-08-18T05:54:47;20.10;99.90
22771;DHT22;11552;50.786;4.332;2022-08-18T05:57:37;20.10;99.90
22771;DHT22;11552;50.786;4.332;2022-08-18T06:00:06;20.20;99.90
22771;DHT22;11552;50.786;4.332;2022-08-18T06:05:39;20.20;99.90
22771;DHT22;11552;50.786;4.332;2022-08-18T06:08:09;20.30;99.90
22771;DHT22;11552;50.786;4.332;2022-08-18T06:10:36;20.30;99.90
22771;DHT22;11552;50.786;4.332;2022-08-18T06:13:02;20.40;99.90
22771;DHT22;11552;50.786;4.332;2022-08-18T06:26:00;21.10;99.90
22771;DHT22;11552;50.786;4.332;2022-08-18T06:31:15;21.10;99.90
22771;DHT22;11552;50.786;4.332;2022-08-18T06:41:15;20.90;99.90
22771;DHT22;11552;50.786;4.332;2022-08-18T06:46:16;21.00;99.90
22771;DHT22;11552;50.786;4.332;2022-08-18T06:48:44;21.10;99.90
22771;DHT22;11552;50.786;4.332;2022-08-18T06:51:14;21.10;99.90
22771;DHT22;11552;50.786;4.332;2022-08-18T06:53:59;21.20;99.90
22771;DHT22;11552;50.786;4.332;2022-08-18T06:56:47;21.30;99.90
22771;DHT22;11552;50.786;4.332;2022-08-18T06:59:25;21.20;99.90
22771;DHT22;11552;50.786;4.332;2022-08-18T07:01:53;21.30;99.90
22771;DHT22;11552;50.786;4.332;2022-08-18T07:04:33;21.10;99.90
22771;DHT22;11552;50.786;4.332;2022-08-18T07:07:10;21.20;99.90
22771;DHT22;11552;50.786;4.332;2022-08-18T07:09:36;21.50;99.90
22771;DHT22;11552;50.786;4.332;2022-08-18T07:12:08;21.40;99.90
22771;DHT22;11552;50.786;4.332;2022-08-18T07:14:41;21.50;99.90
22771;DHT22;11552;50.786;4.332;2022-08-18T07:17:09;21.40;99.90
22771;DHT22;11552;50.786;4.332;2022-08-18T07:19:35;21.60;99.90
22771;DHT22;11552;50.786;4.332;2022-08-18T07:24:29;22.20;99.90
22771;DHT22;11552;50.786;4.332;2022-08-18T07:27:01;22.80;99.90
22771;DHT22;11552;50.786;4.332;2022-08-18T07:29:29;23.20;99.90
22771;DHT22;11552;50.786;4.332;2022-08-18T07:31:55;23.50;99.90
22771;DHT22;11552;50.786;4.332;2022-08-18T07:34:26;23.80;99.90
22771;DHT22;11552;50.786;4.332;2022-08-18T07:36:53;24.20;99.90
22771;DHT22;11552;50.786;4.332;2022-08-18T07:39:21;24.10;99.90
22771;DHT22;11552;50.786;4.332;2022-08-18T07:41:54;24.60;99.90
22771;DHT22;11552;50.786;4.332;2022-08-18T07:46:55;24.40;99.90
22771;DHT22;11552;50.786;4.332;2022-08-18T07:49:23;24.40;99.90
22771;DHT22;11552;50.786;4.332;2022-08-18T07:51:52;23.70;99.90
22771;DHT22;11552;50.786;4.332;2022-08-18T07:57:07;23.70;99.90
22771;DHT22;11552;50.786;4.332;2022-08-18T07:59:36;23.70;99.90
22771;DHT22;11552;50.786;4.332;2022-08-18T08:12:08;23.50;99.90
22771;DHT22;11552;50.786;4.332;2022-08-18T08:14:52;23.40;99.90
22771;DHT22;11552;50.786;4.332;2022-08-18T08:17:24;24.00;99.90
22771;DHT22;11552;50.786;4.332;2022-08-18T08:19:58;24.40;99.90
22771;DHT22;11552;50.786;4.332;2022-08-18T08:25:04;26.70;99.90
22771;DHT22;11552;50.786;4.332;2022-08-18T08:32:32;31.50;99.90
22771;DHT22;11552;50.786;4.332;2022-08-18T08:35:10;31.10;99.90
22771;DHT22;11552;50.786;4.332;2022-08-18T08:37:39;30.90;99.90
22771;DHT22;11552;50.786;4.332;2022-08-18T08:40:15;30.70;99.90
22771;DHT22;11552;50.786;4.332;2022-08-18T08:42:53;32.30;96.80
22771;DHT22;11552;50.786;4.332;2022-08-18T08:45:22;31.70;96.80
22771;DHT22;11552;50.786;4.332;2022-08-18T08:50:25;34.10;92.60
22771;DHT22;11552;50.786;4.332;2022-08-18T08:55:22;33.60;91.10
22771;DHT22;11552;50.786;4.332;2022-08-18T08:58:09;32.20;92.90
22771;DHT22;11552;50.786;4.332;2022-08-18T09:00:37;31.50;94.30
22771;DHT22;11552;50.786;4.332;2022-08-18T09:21:17;33.80;85.30
22771;DHT22;11552;50.786;4.332;2022-08-18T09:23:46;32.10;89.80
22771;DHT22;11552;50.786;4.332;2022-08-18T09:26:23;31.60;91.60
22771;DHT22;11552;50.786;4.332;2022-08-18T09:28:56;32.40;90.30
22771;DHT22;11552;50.786;4.332;2022-08-18T09:31:24;33.40;87.40
22771;DHT22;11552;50.786;4.332;2022-08-18T09:36:58;35.20;77.60
22771;DHT22;11552;50.786;4.332;2022-08-18T09:39:27;35.20;78.30
22771;DHT22;11552;50.786;4.332;2022-08-18T09:42:15;33.30;81.80
22771;DHT22;11552;50.786;4.332;2022-08-18T09:49:44;32.70;87.00
22771;DHT22;11552;50.786;4.332;2022-08-18T09:57:21;35.50;75.30
22771;DHT22;11552;50.786;4.332;2022-08-18T09:59:53;38.60;66.70
22771;DHT22;11552;50.786;4.332;2022-08-18T10:05:21;35.50;67.70
22771;DHT22;11552;50.786;4.332;2022-08-18T10:07:37;35.00;71.30
22771;DHT22;11552;50.786;4.332;2022-08-18T10:23:45;28.70;90.70
22771;DHT22;11552;50.786;4.332;2022-08-18T10:26:56;28.90;91.10
22771;DHT22;11552;50.786;4.332;2022-08-18T10:29:03;29.70;89.70
22771;DHT22;11552;50.786;4.332;2022-08-18T10:31:30;32.50;82.10
22771;DHT22;11552;50.786;4.332;2022-08-18T10:33:58;34.80;74.40
22771;DHT22;11552;50.786;4.332;2022-08-18T10:39:13;35.40;69.70
22771;DHT22;11552;50.786;4.332;2022-08-18T10:41:44;32.80;75.50
22771;DHT22;11552;50.786;4.332;2022-08-18T10:44:13;31.70;79.30
22771;DHT22;11552;50.786;4.332;2022-08-18T10:46:41;31.00;81.20
22771;DHT22;11552;50.786;4.332;2022-08-18T10:54:32;28.60;89.40
22771;DHT22;11552;50.786;4.332;2022-08-18T10:57:11;27.60;91.50
22771;DHT22;11552;50.786;4.332;2022-08-18T10:59:42;27.90;92.50
22771;DHT22;11552;50.786;4.332;2022-08-18T11:04:53;28.00;92.20
22771;DHT22;11552;50.786;4.332;2022-08-18T11:07:20;28.10;92.00
22771;DHT22;11552;50.786;4.332;2022-08-18T11:09:48;28.10;91.90
22771;DHT22;11552;50.786;4.332;2022-08-18T11:12:14;27.90;92.50
22771;DHT22;11552;50.786;4.332;2022-08-18T11:17:34;27.40;93.40
22771;DHT22;11552;50.786;4.332;2022-08-18T11:20:05;27.20;94.30
22771;DHT22;11552;50.786;4.332;2022-08-18T11:22:33;26.60;95.70
22771;DHT22;11552;50.786;4.332;2022-08-18T11:25:00;27.30;95.20
22771;DHT22;11552;50.786;4.332;2022-08-18T11:27:30;27.90;93.80
22771;DHT22;11552;50.786;4.332;2022-08-18T11:30:01;28.10;93.90
22771;DHT22;11552;50.786;4.332;2022-08-18T11:32:34;28.10;93.80
22771;DHT22;11552;50.786;4.332;2022-08-18T11:35:23;28.10;93.60
22771;DHT22;11552;50.786;4.332;2022-08-18T11:37:56;28.20;93.60
22771;DHT22;11552;50.786;4.332;2022-08-18T11:42:56;27.30;96.70
22771;DHT22;11552;50.786;4.332;2022-08-18T11:45:24;26.40;97.80
22771;DHT22;11552;50.786;4.332;2022-08-18T11:50:43;26.30;99.60
22771;DHT22;11552;50.786;4.332;2022-08-18T11:53:15;26.60;99.00
22771;DHT22;11552;50.786;4.332;2022-08-18T11:55:49;27.40;97.80
22771;DHT22;11552;50.786;4.332;2022-08-18T12:01:04;27.90;96.10
22771;DHT22;11552;50.786;4.332;2022-08-18T12:03:41;28.20;94.80
22771;DHT22;11552;50.786;4.332;2022-08-18T12:06:11;28.10;95.20
22771;DHT22;11552;50.786;4.332;2022-08-18T12:08:56;28.20;94.40
22771;DHT22;11552;50.786;4.332;2022-08-18T12:11:25;27.70;95.50
22771;DHT22;11552;50.786;4.332;2022-08-18T12:14:08;27.10;96.60
22771;DHT22;11552;50.786;4.332;2022-08-18T12:16:40;27.20;96.40
22771;DHT22;11552;50.786;4.332;2022-08-18T12:19:08;27.50;96.00
22771;DHT22;11552;50.786;4.332;2022-08-18T12:21:38;27.90;94.80
22771;DHT22;11552;50.786;4.332;2022-08-18T12:24:04;27.80;94.30
22771;DHT22;11552;50.786;4.332;2022-08-18T12:26:30;28.00;94.70
22771;DHT22;11552;50.786;4.332;2022-08-18T12:28:55;28.50;94.00
22771;DHT22;11552;50.786;4.332;2022-08-18T12:31:21;28.80;92.70
22771;DHT22;11552;50.786;4.332;2022-08-18T12:33:46;28.80;92.20
22771;DHT22;11552;50.786;4.332;2022-08-18T12:36:12;28.70;92.00
22771;DHT22;11552;50.786;4.332;2022-08-18T12:38:38;28.90;91.80
22771;DHT22;11552;50.786;4.332;2022-08-18T12:41:05;29.00;91.20
22771;DHT22;11552;50.786;4.332;2022-08-18T12:43:30;28.90;90.80
22771;DHT22;11552;50.786;4.332;2022-08-18T12:45:57;28.90;90.30
22771;DHT22;11552;50.786;4.332;2022-08-18T12:48:22;29.10;90.20
22771;DHT22;11552;50.786;4.332;2022-08-18T12:50:48;29.10;89.60
22771;DHT22;11552;50.786;4.332;2022-08-18T12:53:14;29.20;90.00
22771;DHT22;11552;50.786;4.332;2022-08-18T12:55:40;29.50;88.40
22771;DHT22;11552;50.786;4.332;2022-08-18T12:58:12;29.70;87.70
22771;DHT22;11552;50.786;4.332;2022-08-18T13:00:53;29.80;86.70
22771;DHT22;11552;50.786;4.332;2022-08-18T13:03:19;29.80;87.10
22771;DHT22;11552;50.786;4.332;2022-08-18T13:05:45;29.90;87.00
22771;DHT22;11552;50.786;4.332;2022-08-18T13:08:14;30.20;86.30
22771;DHT22;11552;50.786;4.332;2022-08-18T13:10:40;30.30;85.60
22771;DHT22;11552;50.786;4.332;2022-08-18T13:13:06;30.20;85.40
22771;DHT22;11552;50.786;4.332;2022-08-18T13:15:31;30.20;84.20
22771;DHT22;11552;50.786;4.332;2022-08-18T13:17:57;28.80;88.90
22771;DHT22;11552;50.786;4.332;2022-08-18T13:20:23;28.40;90.20
22771;DHT22;11552;50.786;4.332;2022-08-18T13:22:48;28.80;90.30
22771;DHT22;11552;50.786;4.332;2022-08-18T13:25:15;29.20;87.60
22771;DHT22;11552;50.786;4.332;2022-08-18T13:27:42;29.20;88.20
22771;DHT22;11552;50.786;4.332;2022-08-18T13:30:14;29.70;86.60
22771;DHT22;11552;50.786;4.332;2022-08-18T13:32:40;29.70;85.60
22771;DHT22;11552;50.786;4.332;2022-08-18T13:35:06;30.20;83.90
22771;DHT22;11552;50.786;4.332;2022-08-18T13:37:32;30.30;84.80
22771;DHT22;11552;50.786;4.332;2022-08-18T13:39:59;30.30;84.10
22771;DHT22;11552;50.786;4.332;2022-08-18T13:42:24;29.90;84.40
22771;DHT22;11552;50.786;4.332;2022-08-18T13:44:52;30.10;83.70
22771;DHT22;11552;50.786;4.332;2022-08-18T13:47:19;30.10;84.20
22771;DHT22;11552;50.786;4.332;2022-08-18T13:49:45;30.10;82.90
22771;DHT22;11552;50.786;4.332;2022-08-18T13:52:11;30.20;83.10
22771;DHT22;11552;50.786;4.332;2022-08-18T13:54:36;30.20;82.10
22771;DHT22;11552;50.786;4.332;2022-08-18T13:57:02;30.50;81.00
22771;DHT22;11552;50.786;4.332;2022-08-18T13:59:28;30.50;80.20
22771;DHT22;11552;50.786;4.332;2022-08-18T14:01:59;30.40;80.40
22771;DHT22;11552;50.786;4.332;2022-08-18T14:04:25;30.50;82.20
22771;DHT22;11552;50.786;4.332;2022-08-18T14:06:52;30.40;82.70
22771;DHT22;11552;50.786;4.332;2022-08-18T14:09:18;30.40;82.80
22771;DHT22;11552;50.786;4.332;2022-08-18T14:11:44;30.30;82.50
22771;DHT22;11552;50.786;4.332;2022-08-18T14:14:11;30.10;82.80
22771;DHT22;11552;50.786;4.332;2022-08-18T14:16:37;29.90;84.70
22771;DHT22;11552;50.786;4.332;2022-08-18T14:19:03;29.80;85.30
22771;DHT22;11552;50.786;4.332;2022-08-18T14:21:51;29.60;85.80
22771;DHT22;11552;50.786;4.332;2022-08-18T14:24:36;29.80;86.50
22771;DHT22;11552;50.786;4.332;2022-08-18T14:27:25;29.50;87.20
22771;DHT22;11552;50.786;4.332;2022-08-18T14:29:52;29.10;89.20
22771;DHT22;11552;50.786;4.332;2022-08-18T14:32:18;28.90;90.60
22771;DHT22;11552;50.786;4.332;2022-08-18T14:34:46;28.90;90.50
22771;DHT22;11552;50.786;4.332;2022-08-18T14:37:12;28.10;91.70
22771;DHT22;11552;50.786;4.332;2022-08-18T14:39:37;28.00;91.80
22771;DHT22;11552;50.786;4.332;2022-08-18T14:42:03;27.70;92.70
22771;DHT22;11552;50.786;4.332;2022-08-18T14:44:28;27.60;93.10
22771;DHT22;11552;50.786;4.332;2022-08-18T14:46:54;28.00;92.90
22771;DHT22;11552;50.786;4.332;2022-08-18T14:49:26;28.70;91.10
22771;DHT22;11552;50.786;4.332;2022-08-18T14:51:52;29.20;88.90
22771;DHT22;11552;50.786;4.332;2022-08-18T14:54:17;29.60;87.20
22771;DHT22;11552;50.786;4.332;2022-08-18T14:56:43;30.10;83.10
22771;DHT22;11552;50.786;4.332;2022-08-18T14:59:08;30.20;84.40
22771;DHT22;11552;50.786;4.332;2022-08-18T15:01:35;30.30;84.60
22771;DHT22;11552;50.786;4.332;2022-08-18T15:04:00;30.40;84.10
22771;DHT22;11552;50.786;4.332;2022-08-18T15:06:27;30.70;82.60
22771;DHT22;11552;50.786;4.332;2022-08-18T15:08:53;30.90;81.20
22771;DHT22;11552;50.786;4.332;2022-08-18T15:11:18;30.70;80.70
22771;DHT22;11552;50.786;4.332;2022-08-18T15:13:44;30.80;81.30
22771;DHT22;11552;50.786;4.332;2022-08-18T15:16:11;30.80;81.20
22771;DHT22;11552;50.786;4.332;2022-08-18T15:18:42;31.00;80.50
22771;DHT22;11552;50.786;4.332;2022-08-18T15:21:08;31.00;84.50
22771;DHT22;11552;50.786;4.332;2022-08-18T15:23:52;31.10;84.80
22771;DHT22;11552;50.786;4.332;2022-08-18T15:26:36;30.70;86.40
22771;DHT22;11552;50.786;4.332;2022-08-18T15:29:03;30.50;87.40
22771;DHT22;11552;50.786;4.332;2022-08-18T15:31:32;30.40;87.60
22771;DHT22;11552;50.786;4.332;2022-08-18T15:33:58;29.50;89.80
22771;DHT22;11552;50.786;4.332;2022-08-18T15:36:24;29.40;89.90
22771;DHT22;11552;50.786;4.332;2022-08-18T15:38:49;29.80;90.10
22771;DHT22;11552;50.786;4.332;2022-08-18T15:41:26;29.70;90.20
22771;DHT22;11552;50.786;4.332;2022-08-18T15:43:51;29.70;89.20
22771;DHT22;11552;50.786;4.332;2022-08-18T15:46:18;29.40;90.40
22771;DHT22;11552;50.786;4.332;2022-08-18T15:48:43;29.40;90.50
22771;DHT22;11552;50.786;4.332;2022-08-18T15:51:09;29.00;91.00
22771;DHT22;11552;50.786;4.332;2022-08-18T15:53:35;28.20;92.00
22771;DHT22;11552;50.786;4.332;2022-08-18T15:56:00;28.40;92.40
22771;DHT22;11552;50.786;4.332;2022-08-18T15:58:25;28.80;91.70
22771;DHT22;11552;50.786;4.332;2022-08-18T16:00:51;28.90;91.20
22771;DHT22;11552;50.786;4.332;2022-08-18T16:03:17;29.00;91.00
22771;DHT22;11552;50.786;4.332;2022-08-18T16:05:46;29.00;91.40
22771;DHT22;11552;50.786;4.332;2022-08-18T16:08:12;29.00;91.40
22771;DHT22;11552;50.786;4.332;2022-08-18T16:10:39;29.00;91.80
22771;DHT22;11552;50.786;4.332;2022-08-18T16:13:06;29.00;91.90
22771;DHT22;11552;50.786;4.332;2022-08-18T16:15:35;29.10;91.90
22771;DHT22;11552;50.786;4.332;2022-08-18T16:18:02;29.00;91.30
22771;DHT22;11552;50.786;4.332;2022-08-18T16:20:28;29.30;90.90
22771;DHT22;11552;50.786;4.332;2022-08-18T16:22:54;29.40;91.10
22771;DHT22;11552;50.786;4.332;2022-08-18T16:25:20;29.50;91.20
22771;DHT22;11552;50.786;4.332;2022-08-18T16:27:45;29.40;91.00
22771;DHT22;11552;50.786;4.332;2022-08-18T16:30:13;29.20;91.20
22771;DHT22;11552;50.786;4.332;2022-08-18T16:32:39;29.10;91.50
22771;DHT22;11552;50.786;4.332;2022-08-18T16:35:05;29.00;91.40
22771;DHT22;11552;50.786;4.332;2022-08-18T16:37:30;29.00;91.00
22771;DHT22;11552;50.786;4.332;2022-08-18T16:39:56;29.10;91.00
22771;DHT22;11552;50.786;4.332;2022-08-18T16:42:21;29.00;91.30
22771;DHT22;11552;50.786;4.332;2022-08-18T16:44:47;28.80;91.30
22771;DHT22;11552;50.786;4.332;2022-08-18T16:47:13;28.70;91.30
22771;DHT22;11552;50.786;4.332;2022-08-18T16:49:43;28.50;91.80
22771;DHT22;11552;50.786;4.332;2022-08-18T16:52:13;28.50;91.70
22771;DHT22;11552;50.786;4.332;2022-08-18T16:54:40;28.50;91.40
22771;DHT22;11552;50.786;4.332;2022-08-18T16:57:06;28.40;91.50
22771;DHT22;11552;50.786;4.332;2022-08-18T16:59:31;28.50;91.10
22771;DHT22;11552;50.786;4.332;2022-08-18T17:02:15;28.40;91.40
22771;DHT22;11552;50.786;4.332;2022-08-18T17:05:00;28.10;91.40
22771;DHT22;11552;50.786;4.332;2022-08-18T17:07:30;28.20;91.00
22771;DHT22;11552;50.786;4.332;2022-08-18T17:09:56;28.30;90.70
22771;DHT22;11552;50.786;4.332;2022-08-18T17:12:22;28.30;90.40
22771;DHT22;11552;50.786;4.332;2022-08-18T17:14:48;28.20;90.60
22771;DHT22;11552;50.786;4.332;2022-08-18T17:17:14;28.30;90.50
22771;DHT22;11552;50.786;4.332;2022-08-18T17:19:42;28.20;90.70
22771;DHT22;11552;50.786;4.332;2022-08-18T17:22:08;28.20;90.50
22771;DHT22;11552;50.786;4.332;2022-08-18T17:24:34;28.10;90.80
22771;DHT22;11552;50.786;4.332;2022-08-18T17:27:14;28.00;90.60
22771;DHT22;11552;50.786;4.332;2022-08-18T17:35:03;27.80;91.00
22771;DHT22;11552;50.786;4.332;2022-08-18T17:37:29;27.80;91.10
22771;DHT22;11552;50.786;4.332;2022-08-18T17:40:02;27.70;91.70
22771;DHT22;11552;50.786;4.332;2022-08-18T17:42:29;27.80;92.50
22771;DHT22;11552;50.786;4.332;2022-08-18T17:45:01;27.60;93.40
22771;DHT22;11552;50.786;4.332;2022-08-18T17:47:35;27.70;93.50
22771;DHT22;11552;50.786;4.332;2022-08-18T17:50:04;27.50;93.50
22771;DHT22;11552;50.786;4.332;2022-08-18T17:52:49;27.30;94.30
22771;DHT22;11552;50.786;4.332;2022-08-18T17:55:26;27.10;95.00